sensor_id;sensor_type;location;lat;lon;timestamp;P1;durP1;ratioP1;P2;durP2;ratioP2
34204;SDS011;20471;49.680;20.074;2022-10-31T00:03:45;26.52;;;15.53;;
34204;SDS011;20471;49.680;20.074;2022-10-31T00:06:13;27.30;;;14.85;;
34204;SDS011;20471;49.680;20.074;2022-10-31T00:08:42;28.05;;;14.65;;
34204;SDS011;20471;49.680;20.074;2022-10-31T00:11:13;19.15;;;11.25;;
34204;SDS011;20471;49.680;20.074;2022-10-31T00:13:40;19.55;;;11.48;;
34204;SDS011;20471;49.680;20.074;2022-10-31T00:16:12;19.77;;;11.28;;
34204;SDS011;20471;49.680;20.074;2022-10-31T00:18:43;16.60;;;10.05;;
34204;SDS011;20471;49.680;20.074;2022-10-31T00:21:10;16.90;;;9.48;;
34204;SDS011;20471;49.680;20.074;2022-10-31T00:23:36;16.20;;;10.10;;
34204;SDS011;20471;49.680;20.074;2022-10-31T00:26:03;13.88;;;9.20;;
34204;SDS011;20471;49.680;20.074;2022-10-31T00:28:31;14.05;;;8.63;;
34204;SDS011;20471;49.680;20.074;2022-10-31T00:30:58;18.12;;;9.00;;
34204;SDS011;20471;49.680;20.074;2022-10-31T00:33:29;16.00;;;8.48;;
34204;SDS011;20471;49.680;20.074;2022-10-31T00:35:56;18.00;;;8.83;;
34204;SDS011;20471;49.680;20.074;2022-10-31T00:38:22;17.65;;;9.13;;
34204;SDS011;20471;49.680;20.074;2022-10-31T00:40:49;15.60;;;9.35;;
34204;SDS011;20471;49.680;20.074;2022-10-31T00:43:16;15.72;;;9.45;;
34204;SDS011;20471;49.680;20.074;2022-10-31T00:45:43;16.62;;;9.53;;
34204;SDS011;20471;49.680;20.074;2022-10-31T00:48:10;19.77;;;10.08;;
34204;SDS011;20471;49.680;20.074;2022-10-31T00:50:37;13.88;;;8.08;;
34204;SDS011;20471;49.680;20.074;2022-10-31T00:53:04;14.30;;;7.40;;
34204;SDS011;20471;49.680;20.074;2022-10-31T00:55:31;15.30;;;6.62;;
34204;SDS011;20471;49.680;20.074;2022-10-31T00:57:58;11.03;;;5.90;;
34204;SDS011;20471;49.680;20.074;2022-10-31T01:00:24;10.72;;;6.33;;
34204;SDS011;20471;49.680;20.074;2022-10-31T01:02:52;18.05;;;7.83;;
34204;SDS011;20471;49.680;20.074;2022-10-31T01:05:18;18.85;;;8.95;;
34204;SDS011;20471;49.680;20.074;2022-10-31T01:07:45;19.67;;;8.73;;
34204;SDS011;20471;49.680;20.074;2022-10-31T01:10:12;15.68;;;8.53;;
34204;SDS011;20471;49.680;20.074;2022-10-31T01:12:39;18.12;;;9.28;;
34204;SDS011;20471;49.680;20.074;2022-10-31T01:15:10;20.27;;;11.63;;
34204;SDS011;20471;49.680;20.074;2022-10-31T01:17:39;25.88;;;12.33;;
34204;SDS011;20471;49.680;20.074;2022-10-31T01:20:13;19.85;;;12.40;;
34204;SDS011;20471;49.680;20.074;2022-10-31T01:22:35;23.27;;;11.33;;
34204;SDS011;20471;49.680;20.074;2022-10-31T01:25:02;22.17;;;10.63;;
34204;SDS011;20471;49.680;20.074;2022-10-31T01:27:30;22.45;;;12.10;;
34204;SDS011;20471;49.680;20.074;2022-10-31T01:29:57;19.62;;;10.78;;
34204;SDS011;20471;49.680;20.074;2022-10-31T01:32:24;22.77;;;10.70;;
34204;SDS011;20471;49.680;20.074;2022-10-31T01:34:51;19.37;;;10.15;;
34204;SDS011;20471;49.680;20.074;2022-10-31T01:37:17;15.00;;;8.98;;
34204;SDS011;20471;49.680;20.074;2022-10-31T01:39:44;16.97;;;8.43;;
34204;SDS011;20471;49.680;20.074;2022-10-31T01:42:15;14.30;;;8.10;;
34204;SDS011;20471;49.680;20.074;2022-10-31T01:47:14;14.47;;;7.50;;
34204;SDS011;20471;49.680;20.074;2022-10-31T01:49:49;16.93;;;8.90;;
34204;SDS011;20471;49.680;20.074;2022-10-31T01:55:03;19.32;;;10.38;;
34204;SDS011;20471;49.680;20.074;2022-10-31T01:57:40;20.60;;;9.48;;
34204;SDS011;20471;49.680;20.074;2022-10-31T02:00:10;14.85;;;9.70;;
34204;SDS011;20471;49.680;20.074;2022-10-31T02:02:39;21.75;;;9.50;;
34204;SDS011;20471;49.680;20.074;2022-10-31T02:05:06;16.70;;;9.28;;
34204;SDS011;20471;49.680;20.074;2022-10-31T02:07:39;14.85;;;7.95;;
34204;SDS011;20471;49.680;20.074;2022-10-31T02:10:10;14.98;;;7.50;;
34204;SDS011;20471;49.680;20.074;2022-10-31T02:12:36;14.07;;;8.05;;
34204;SDS011;20471;49.680;20.074;2022-10-31T02:15:06;17.73;;;9.00;;
34204;SDS011;20471;49.680;20.074;2022-10-31T02:17:35;19.40;;;9.25;;
34204;SDS011;20471;49.680;20.074;2022-10-31T02:20:09;13.75;;;7.78;;
34204;SDS011;20471;49.680;20.074;2022-10-31T02:22:45;17.67;;;8.73;;
34204;SDS011;20471;49.680;20.074;2022-10-31T02:39:32;30.95;;;15.23;;
34204;SDS011;20471;49.680;20.074;2022-10-31T02:42:14;34.88;;;17.57;;
34204;SDS011;20471;49.680;20.074;2022-10-31T02:47:36;33.45;;;19.02;;
34204;SDS011;20471;49.680;20.074;2022-10-31T02:50:08;27.90;;;14.93;;
34204;SDS011;20471;49.680;20.074;2022-10-31T02:52:38;31.70;;;16.73;;
34204;SDS011;20471;49.680;20.074;2022-10-31T02:55:12;27.07;;;14.78;;
34204;SDS011;20471;49.680;20.074;2022-10-31T02:57:54;24.95;;;13.20;;
34204;SDS011;20471;49.680;20.074;2022-10-31T03:00:24;21.45;;;12.15;;
34204;SDS011;20471;49.680;20.074;2022-10-31T03:08:53;17.32;;;11.12;;
34204;SDS011;20471;49.680;20.074;2022-10-31T03:11:45;24.95;;;11.80;;
34204;SDS011;20471;49.680;20.074;2022-10-31T03:17:25;24.77;;;11.30;;
34204;SDS011;20471;49.680;20.074;2022-10-31T03:20:16;21.17;;;11.15;;
34204;SDS011;20471;49.680;20.074;2022-10-31T03:22:48;23.22;;;12.65;;
34204;SDS011;20471;49.680;20.074;2022-10-31T03:25:19;19.05;;;10.82;;
34204;SDS011;20471;49.680;20.074;2022-10-31T03:27:45;20.05;;;10.55;;
34204;SDS011;20471;49.680;20.074;2022-10-31T03:30:13;21.07;;;11.00;;
34204;SDS011;20471;49.680;20.074;2022-10-31T03:32:43;23.27;;;9.58;;
34204;SDS011;20471;49.680;20.074;2022-10-31T03:35:14;10.80;;;6.47;;
34204;SDS011;20471;49.680;20.074;2022-10-31T03:37:44;16.82;;;6.92;;
34204;SDS011;20471;49.680;20.074;2022-10-31T03:40:12;17.85;;;9.03;;
34204;SDS011;20471;49.680;20.074;2022-10-31T03:42:44;14.98;;;8.30;;
34204;SDS011;20471;49.680;20.074;2022-10-31T03:45:18;18.85;;;8.35;;
34204;SDS011;20471;49.680;20.074;2022-10-31T03:47:48;20.90;;;10.90;;
34204;SDS011;20471;49.680;20.074;2022-10-31T03:50:16;24.07;;;12.13;;
34204;SDS011;20471;49.680;20.074;2022-10-31T03:58:18;22.62;;;10.70;;
34204;SDS011;20471;49.680;20.074;2022-10-31T04:01:02;27.32;;;10.82;;
34204;SDS011;20471;49.680;20.074;2022-10-31T04:03:33;22.95;;;11.05;;
34204;SDS011;20471;49.680;20.074;2022-10-31T04:06:03;21.95;;;11.63;;
34204;SDS011;20471;49.680;20.074;2022-10-31T04:08:33;23.65;;;10.78;;
34204;SDS011;20471;49.680;20.074;2022-10-31T04:11:07;28.60;;;12.28;;
34204;SDS011;20471;49.680;20.074;2022-10-31T04:13:37;20.43;;;10.72;;
34204;SDS011;20471;49.680;20.074;2022-10-31T04:16:06;28.07;;;10.65;;
34204;SDS011;20471;49.680;20.074;2022-10-31T04:18:34;23.20;;;10.60;;
34204;SDS011;20471;49.680;20.074;2022-10-31T04:21:02;23.62;;;10.00;;
34204;SDS011;20471;49.680;20.074;2022-10-31T04:23:32;15.05;;;8.90;;
34204;SDS011;20471;49.680;20.074;2022-10-31T04:26:00;14.53;;;7.47;;
34204;SDS011;20471;49.680;20.074;2022-10-31T04:28:27;17.70;;;7.60;;
34204;SDS011;20471;49.680;20.074;2022-10-31T04:30:54;15.83;;;7.22;;
34204;SDS011;20471;49.680;20.074;2022-10-31T04:33:20;15.10;;;5.92;;
34204;SDS011;20471;49.680;20.074;2022-10-31T04:35:47;16.82;;;6.75;;
34204;SDS011;20471;49.680;20.074;2022-10-31T04:38:13;16.10;;;7.00;;
34204;SDS011;20471;49.680;20.074;2022-10-31T04:40:40;16.40;;;6.40;;
34204;SDS011;20471;49.680;20.074;2022-10-31T04:43:06;18.52;;;6.35;;
34204;SDS011;20471;49.680;20.074;2022-10-31T04:45:33;12.50;;;5.20;;
34204;SDS011;20471;49.680;20.074;2022-10-31T04:48:00;12.07;;;6.33;;
34204;SDS011;20471;49.680;20.074;2022-10-31T04:50:27;14.47;;;5.95;;
34204;SDS011;20471;49.680;20.074;2022-10-31T04:52:53;18.80;;;6.75;;
34204;SDS011;20471;49.680;20.074;2022-10-31T04:55:20;15.08;;;6.75;;
34204;SDS011;20471;49.680;20.074;2022-10-31T04:57:47;14.78;;;7.12;;
34204;SDS011;20471;49.680;20.074;2022-10-31T05:00:17;14.98;;;7.75;;
34204;SDS011;20471;49.680;20.074;2022-10-31T05:02:49;18.57;;;7.90;;
34204;SDS011;20471;49.680;20.074;2022-10-31T05:07:47;15.63;;;6.78;;
34204;SDS011;20471;49.680;20.074;2022-10-31T05:10:16;20.15;;;8.03;;
34204;SDS011;20471;49.680;20.074;2022-10-31T05:12:53;14.70;;;6.75;;
34204;SDS011;20471;49.680;20.074;2022-10-31T05:15:25;11.70;;;6.78;;
34204;SDS011;20471;49.680;20.074;2022-10-31T05:17:53;19.07;;;7.45;;
34204;SDS011;20471;49.680;20.074;2022-10-31T05:20:22;13.08;;;7.10;;
34204;SDS011;20471;49.680;20.074;2022-10-31T05:22:55;16.02;;;7.22;;
34204;SDS011;20471;49.680;20.074;2022-10-31T05:25:24;17.73;;;7.55;;
34204;SDS011;20471;49.680;20.074;2022-10-31T05:27:53;13.95;;;7.17;;
34204;SDS011;20471;49.680;20.074;2022-10-31T05:30:23;18.77;;;7.50;;
34204;SDS011;20471;49.680;20.074;2022-10-31T05:32:53;22.17;;;7.92;;
34204;SDS011;20471;49.680;20.074;2022-10-31T05:35:20;15.88;;;8.28;;
34204;SDS011;20471;49.680;20.074;2022-10-31T05:37:54;21.68;;;8.18;;
34204;SDS011;20471;49.680;20.074;2022-10-31T05:40:21;21.20;;;9.80;;
34204;SDS011;20471;49.680;20.074;2022-10-31T05:42:50;19.05;;;10.00;;
34204;SDS011;20471;49.680;20.074;2022-10-31T05:45:17;21.27;;;10.28;;
34204;SDS011;20471;49.680;20.074;2022-10-31T05:50:26;23.92;;;13.00;;
34204;SDS011;20471;49.680;20.074;2022-10-31T05:55:25;23.27;;;11.80;;
34204;SDS011;20471;49.680;20.074;2022-10-31T05:57:52;26.55;;;13.78;;
34204;SDS011;20471;49.680;20.074;2022-10-31T06:00:20;35.52;;;16.17;;
34204;SDS011;20471;49.680;20.074;2022-10-31T06:02:47;34.03;;;16.37;;
34204;SDS011;20471;49.680;20.074;2022-10-31T06:05:14;34.90;;;17.75;;
34204;SDS011;20471;49.680;20.074;2022-10-31T06:07:42;54.58;;;28.57;;
34204;SDS011;20471;49.680;20.074;2022-10-31T06:10:09;46.02;;;24.72;;
34204;SDS011;20471;49.680;20.074;2022-10-31T06:12:35;48.20;;;26.90;;
34204;SDS011;20471;49.680;20.074;2022-10-31T06:15:04;44.70;;;23.07;;
34204;SDS011;20471;49.680;20.074;2022-10-31T06:17:33;42.58;;;21.57;;
34204;SDS011;20471;49.680;20.074;2022-10-31T06:20:01;42.48;;;22.93;;
34204;SDS011;20471;49.680;20.074;2022-10-31T06:22:29;40.05;;;24.52;;
34204;SDS011;20471;49.680;20.074;2022-10-31T06:24:55;49.23;;;23.12;;
34204;SDS011;20471;49.680;20.074;2022-10-31T06:27:22;51.00;;;22.52;;
34204;SDS011;20471;49.680;20.074;2022-10-31T06:29:49;44.48;;;21.37;;
34204;SDS011;20471;49.680;20.074;2022-10-31T06:32:16;40.95;;;19.25;;
34204;SDS011;20471;49.680;20.074;2022-10-31T06:34:43;35.68;;;19.30;;
34204;SDS011;20471;49.680;20.074;2022-10-31T06:37:12;44.03;;;17.95;;
34204;SDS011;20471;49.680;20.074;2022-10-31T06:39:39;38.30;;;17.20;;
34204;SDS011;20471;49.680;20.074;2022-10-31T06:42:06;29.57;;;15.38;;
34204;SDS011;20471;49.680;20.074;2022-10-31T06:44:33;21.75;;;12.03;;
34204;SDS011;20471;49.680;20.074;2022-10-31T06:46:59;32.13;;;13.65;;
34204;SDS011;20471;49.680;20.074;2022-10-31T06:49:26;24.52;;;11.55;;
34204;SDS011;20471;49.680;20.074;2022-10-31T06:51:52;22.45;;;10.28;;
34204;SDS011;20471;49.680;20.074;2022-10-31T06:54:20;24.23;;;9.58;;
34204;SDS011;20471;49.680;20.074;2022-10-31T06:56:46;20.90;;;10.30;;
34204;SDS011;20471;49.680;20.074;2022-10-31T06:59:14;24.10;;;10.23;;
34204;SDS011;20471;49.680;20.074;2022-10-31T07:01:41;23.57;;;9.13;;
34204;SDS011;20471;49.680;20.074;2022-10-31T07:04:09;17.87;;;10.20;;
34204;SDS011;20471;49.680;20.074;2022-10-31T07:06:36;25.85;;;11.10;;
34204;SDS011;20471;49.680;20.074;2022-10-31T07:09:03;22.50;;;11.03;;
34204;SDS011;20471;49.680;20.074;2022-10-31T07:11:30;26.50;;;10.93;;
34204;SDS011;20471;49.680;20.074;2022-10-31T07:13:56;20.77;;;10.43;;
34204;SDS011;20471;49.680;20.074;2022-10-31T07:16:23;28.30;;;11.25;;
34204;SDS011;20471;49.680;20.074;2022-10-31T07:18:50;18.60;;;11.05;;
34204;SDS011;20471;49.680;20.074;2022-10-31T07:21:16;20.37;;;10.18;;
34204;SDS011;20471;49.680;20.074;2022-10-31T07:23:43;21.48;;;10.48;;
34204;SDS011;20471;49.680;20.074;2022-10-31T07:26:10;30.17;;;10.60;;
34204;SDS011;20471;49.680;20.074;2022-10-31T07:28:36;23.57;;;11.30;;
34204;SDS011;20471;49.680;20.074;2022-10-31T07:31:03;30.35;;;11.63;;
34204;SDS011;20471;49.680;20.074;2022-10-31T07:33:29;25.60;;;12.23;;
34204;SDS011;20471;49.680;20.074;2022-10-31T07:35:56;22.65;;;11.35;;
34204;SDS011;20471;49.680;20.074;2022-10-31T07:38:23;21.80;;;9.98;;
34204;SDS011;20471;49.680;20.074;2022-10-31T07:40:50;18.85;;;7.83;;
34204;SDS011;20471;49.680;20.074;2022-10-31T07:43:21;18.17;;;7.90;;
34204;SDS011;20471;49.680;20.074;2022-10-31T07:45:51;21.77;;;7.40;;
34204;SDS011;20471;49.680;20.074;2022-10-31T07:48:19;15.28;;;6.28;;
34204;SDS011;20471;49.680;20.074;2022-10-31T07:50:46;28.98;;;7.53;;
34204;SDS011;20471;49.680;20.074;2022-10-31T07:53:13;15.68;;;8.60;;
34204;SDS011;20471;49.680;20.074;2022-10-31T07:55:41;15.58;;;8.15;;
34204;SDS011;20471;49.680;20.074;2022-10-31T07:58:12;20.12;;;9.23;;
34204;SDS011;20471;49.680;20.074;2022-10-31T08:00:41;23.67;;;10.18;;
34204;SDS011;20471;49.680;20.074;2022-10-31T08:03:11;18.20;;;8.20;;
34204;SDS011;20471;49.680;20.074;2022-10-31T08:05:40;21.27;;;8.33;;
34204;SDS011;20471;49.680;20.074;2022-10-31T08:08:08;13.78;;;6.62;;
34204;SDS011;20471;49.680;20.074;2022-10-31T08:10:35;14.47;;;6.25;;
34204;SDS011;20471;49.680;20.074;2022-10-31T08:13:06;12.85;;;6.12;;
34204;SDS011;20471;49.680;20.074;2022-10-31T08:15:35;18.48;;;6.55;;
34204;SDS011;20471;49.680;20.074;2022-10-31T08:18:05;17.23;;;6.97;;
34204;SDS011;20471;49.680;20.074;2022-10-31T08:20:36;18.53;;;7.67;;
34204;SDS011;20471;49.680;20.074;2022-10-31T08:23:03;25.05;;;8.05;;
34204;SDS011;20471;49.680;20.074;2022-10-31T08:25:32;16.82;;;7.37;;
34204;SDS011;20471;49.680;20.074;2022-10-31T08:28:00;14.78;;;7.12;;
34204;SDS011;20471;49.680;20.074;2022-10-31T08:30:29;20.88;;;7.33;;
34204;SDS011;20471;49.680;20.074;2022-10-31T08:35:36;20.48;;;6.50;;
34204;SDS011;20471;49.680;20.074;2022-10-31T08:38:03;19.20;;;7.50;;
34204;SDS011;20471;49.680;20.074;2022-10-31T08:40:31;15.68;;;5.95;;
34204;SDS011;20471;49.680;20.074;2022-10-31T08:45:30;12.73;;;5.45;;
34204;SDS011;20471;49.680;20.074;2022-10-31T08:47:59;18.30;;;5.97;;
34204;SDS011;20471;49.680;20.074;2022-10-31T08:50:32;15.00;;;6.22;;
34204;SDS011;20471;49.680;20.074;2022-10-31T08:53:01;12.85;;;6.25;;
34204;SDS011;20471;49.680;20.074;2022-10-31T08:55:41;26.05;;;6.78;;
34204;SDS011;20471;49.680;20.074;2022-10-31T08:58:09;11.38;;;5.35;;
34204;SDS011;20471;49.680;20.074;2022-10-31T09:00:39;15.08;;;5.42;;
34204;SDS011;20471;49.680;20.074;2022-10-31T09:03:08;14.83;;;5.70;;
34204;SDS011;20471;49.680;20.074;2022-10-31T09:05:43;12.00;;;5.12;;
34204;SDS011;20471;49.680;20.074;2022-10-31T09:08:11;15.55;;;5.15;;
34204;SDS011;20471;49.680;20.074;2022-10-31T09:10:38;13.95;;;5.67;;
34204;SDS011;20471;49.680;20.074;2022-10-31T09:15:39;12.30;;;4.60;;
34204;SDS011;20471;49.680;20.074;2022-10-31T09:18:09;14.75;;;5.58;;
34204;SDS011;20471;49.680;20.074;2022-10-31T09:20:38;14.33;;;4.37;;
34204;SDS011;20471;49.680;20.074;2022-10-31T09:23:07;16.80;;;4.83;;
34204;SDS011;20471;49.680;20.074;2022-10-31T09:25:40;14.53;;;4.42;;
34204;SDS011;20471;49.680;20.074;2022-10-31T09:28:09;15.40;;;4.50;;
34204;SDS011;20471;49.680;20.074;2022-10-31T09:30:38;14.05;;;4.60;;
34204;SDS011;20471;49.680;20.074;2022-10-31T09:33:06;10.45;;;4.08;;
34204;SDS011;20471;49.680;20.074;2022-10-31T09:35:36;11.48;;;4.85;;
34204;SDS011;20471;49.680;20.074;2022-10-31T09:38:04;16.70;;;5.95;;
34204;SDS011;20471;49.680;20.074;2022-10-31T09:40:46;17.25;;;5.08;;
34204;SDS011;20471;49.680;20.074;2022-10-31T09:57:02;25.30;;;13.48;;
34204;SDS011;20471;49.680;20.074;2022-10-31T10:05:12;23.83;;;11.38;;
34204;SDS011;20471;49.680;20.074;2022-10-31T10:07:58;23.83;;;11.00;;
34204;SDS011;20471;49.680;20.074;2022-10-31T10:10:46;16.75;;;7.87;;
34204;SDS011;20471;49.680;20.074;2022-10-31T10:13:40;17.75;;;7.80;;
34204;SDS011;20471;49.680;20.074;2022-10-31T10:16:16;17.98;;;7.60;;
34204;SDS011;20471;49.680;20.074;2022-10-31T10:22:18;15.08;;;5.58;;
34204;SDS011;20471;49.680;20.074;2022-10-31T10:25:16;15.83;;;7.33;;
34204;SDS011;20471;49.680;20.074;2022-10-31T10:28:14;16.20;;;6.85;;
34204;SDS011;20471;49.680;20.074;2022-10-31T10:31:00;18.95;;;6.65;;
34204;SDS011;20471;49.680;20.074;2022-10-31T10:36:32;17.73;;;5.95;;
34204;SDS011;20471;49.680;20.074;2022-10-31T10:39:15;14.43;;;5.55;;
34204;SDS011;20471;49.680;20.074;2022-10-31T10:41:47;14.43;;;5.10;;
34204;SDS011;20471;49.680;20.074;2022-10-31T10:44:42;18.75;;;6.12;;
34204;SDS011;20471;49.680;20.074;2022-10-31T10:47:41;12.10;;;5.60;;
34204;SDS011;20471;49.680;20.074;2022-10-31T10:53:00;14.63;;;5.58;;
34204;SDS011;20471;49.680;20.074;2022-10-31T10:55:39;18.27;;;6.75;;
34204;SDS011;20471;49.680;20.074;2022-10-31T10:58:34;19.85;;;6.47;;
34204;SDS011;20471;49.680;20.074;2022-10-31T11:01:08;20.25;;;6.10;;
34204;SDS011;20471;49.680;20.074;2022-10-31T11:03:39;16.35;;;6.25;;
34204;SDS011;20471;49.680;20.074;2022-10-31T11:06:20;14.70;;;4.87;;
34204;SDS011;20471;49.680;20.074;2022-10-31T11:08:51;17.80;;;5.45;;
34204;SDS011;20471;49.680;20.074;2022-10-31T11:11:27;17.85;;;5.95;;
34204;SDS011;20471;49.680;20.074;2022-10-31T11:14:06;17.12;;;5.37;;
34204;SDS011;20471;49.680;20.074;2022-10-31T11:16:45;15.98;;;5.70;;
34204;SDS011;20471;49.680;20.074;2022-10-31T11:19:19;17.90;;;4.87;;
34204;SDS011;20471;49.680;20.074;2022-10-31T11:21:50;14.70;;;4.30;;
34204;SDS011;20471;49.680;20.074;2022-10-31T11:24:18;13.68;;;5.15;;
34204;SDS011;20471;49.680;20.074;2022-10-31T11:26:47;19.35;;;3.80;;
34204;SDS011;20471;49.680;20.074;2022-10-31T11:29:24;12.85;;;4.83;;
34204;SDS011;20471;49.680;20.074;2022-10-31T11:31:52;10.90;;;4.60;;
34204;SDS011;20471;49.680;20.074;2022-10-31T11:34:37;13.25;;;4.15;;
34204;SDS011;20471;49.680;20.074;2022-10-31T11:37:25;9.43;;;4.25;;
34204;SDS011;20471;49.680;20.074;2022-10-31T11:39:55;15.25;;;5.12;;
34204;SDS011;20471;49.680;20.074;2022-10-31T11:42:25;17.15;;;4.42;;
34204;SDS011;20471;49.680;20.074;2022-10-31T11:44:55;13.55;;;3.83;;
34204;SDS011;20471;49.680;20.074;2022-10-31T11:47:27;17.37;;;4.65;;
34204;SDS011;20471;49.680;20.074;2022-10-31T11:49:57;11.28;;;4.60;;
34204;SDS011;20471;49.680;20.074;2022-10-31T11:52:30;21.33;;;4.90;;
34204;SDS011;20471;49.680;20.074;2022-10-31T11:55:00;13.08;;;4.10;;
34204;SDS011;20471;49.680;20.074;2022-10-31T11:57:42;16.12;;;4.08;;
34204;SDS011;20471;49.680;20.074;2022-10-31T12:00:27;12.30;;;4.03;;
34204;SDS011;20471;49.680;20.074;2022-10-31T12:08:52;17.42;;;4.67;;
34204;SDS011;20471;49.680;20.074;2022-10-31T12:17:13;11.83;;;4.03;;
34204;SDS011;20471;49.680;20.074;2022-10-31T12:43:11;12.95;;;5.08;;
34204;SDS011;20471;49.680;20.074;2022-10-31T12:45:58;16.60;;;5.67;;
34204;SDS011;20471;49.680;20.074;2022-10-31T12:48:43;13.08;;;5.28;;
34204;SDS011;20471;49.680;20.074;2022-10-31T13:00:10;15.53;;;5.40;;
34204;SDS011;20471;49.680;20.074;2022-10-31T13:02:44;15.93;;;4.95;;
34204;SDS011;20471;49.680;20.074;2022-10-31T13:08:08;12.98;;;5.08;;
34204;SDS011;20471;49.680;20.074;2022-10-31T13:13:41;13.08;;;4.87;;
34204;SDS011;20471;49.680;20.074;2022-10-31T13:16:31;13.72;;;5.72;;
34204;SDS011;20471;49.680;20.074;2022-10-31T13:21:58;26.62;;;10.93;;
34204;SDS011;20471;49.680;20.074;2022-10-31T13:24:50;19.30;;;10.78;;
34204;SDS011;20471;49.680;20.074;2022-10-31T13:27:28;24.18;;;11.63;;
34204;SDS011;20471;49.680;20.074;2022-10-31T13:32:41;23.20;;;10.72;;
34204;SDS011;20471;49.680;20.074;2022-10-31T13:35:32;22.22;;;10.18;;
34204;SDS011;20471;49.680;20.074;2022-10-31T13:46:51;17.67;;;6.53;;
34204;SDS011;20471;49.680;20.074;2022-10-31T13:49:36;21.02;;;8.53;;
34204;SDS011;20471;49.680;20.074;2022-10-31T13:54:50;22.87;;;9.83;;
34204;SDS011;20471;49.680;20.074;2022-10-31T13:57:39;18.67;;;8.15;;
34204;SDS011;20471;49.680;20.074;2022-10-31T14:07:55;21.33;;;7.12;;
34204;SDS011;20471;49.680;20.074;2022-10-31T14:18:30;20.32;;;9.23;;
34204;SDS011;20471;49.680;20.074;2022-10-31T14:23:55;17.17;;;7.92;;
34204;SDS011;20471;49.680;20.074;2022-10-31T14:29:19;24.32;;;12.03;;
34204;SDS011;20471;49.680;20.074;2022-10-31T14:31:44;21.52;;;14.43;;
34204;SDS011;20471;49.680;20.074;2022-10-31T14:34:22;24.70;;;12.13;;
34204;SDS011;20471;49.680;20.074;2022-10-31T14:46:02;23.95;;;13.45;;
34204;SDS011;20471;49.680;20.074;2022-10-31T14:51:22;29.23;;;14.25;;
34204;SDS011;20471;49.680;20.074;2022-10-31T14:53:53;25.20;;;14.83;;
34204;SDS011;20471;49.680;20.074;2022-10-31T14:59:03;25.75;;;14.87;;
34204;SDS011;20471;49.680;20.074;2022-10-31T15:01:34;30.15;;;16.23;;
34204;SDS011;20471;49.680;20.074;2022-10-31T15:04:13;32.80;;;16.67;;
34204;SDS011;20471;49.680;20.074;2022-10-31T15:09:27;34.58;;;15.68;;
34204;SDS011;20471;49.680;20.074;2022-10-31T15:12:00;33.23;;;14.98;;
34204;SDS011;20471;49.680;20.074;2022-10-31T15:14:47;36.65;;;16.32;;
34204;SDS011;20471;49.680;20.074;2022-10-31T15:17:14;31.27;;;15.50;;
34204;SDS011;20471;49.680;20.074;2022-10-31T15:19:42;30.85;;;15.98;;
34204;SDS011;20471;49.680;20.074;2022-10-31T15:22:10;37.05;;;16.35;;
34204;SDS011;20471;49.680;20.074;2022-10-31T15:24:40;36.90;;;15.48;;
34204;SDS011;20471;49.680;20.074;2022-10-31T15:27:17;31.27;;;16.42;;
34204;SDS011;20471;49.680;20.074;2022-10-31T15:29:51;42.62;;;18.40;;
34204;SDS011;20471;49.680;20.074;2022-10-31T15:32:23;30.70;;;15.53;;
34204;SDS011;20471;49.680;20.074;2022-10-31T15:34:52;37.55;;;16.50;;
34204;SDS011;20471;49.680;20.074;2022-10-31T15:37:22;34.85;;;16.12;;
34204;SDS011;20471;49.680;20.074;2022-10-31T15:39:51;32.25;;;14.98;;
34204;SDS011;20471;49.680;20.074;2022-10-31T15:45:03;27.10;;;14.47;;
34204;SDS011;20471;49.680;20.074;2022-10-31T15:47:44;34.75;;;15.78;;
34204;SDS011;20471;49.680;20.074;2022-10-31T15:50:19;29.77;;;14.68;;
34204;SDS011;20471;49.680;20.074;2022-10-31T15:52:57;24.67;;;14.28;;
34204;SDS011;20471;49.680;20.074;2022-10-31T15:55:26;31.73;;;15.40;;
34204;SDS011;20471;49.680;20.074;2022-10-31T15:58:01;31.00;;;11.95;;
34204;SDS011;20471;49.680;20.074;2022-10-31T16:00:35;35.48;;;17.15;;
34204;SDS011;20471;49.680;20.074;2022-10-31T16:05:48;61.40;;;33.85;;
34204;SDS011;20471;49.680;20.074;2022-10-31T16:11:02;38.63;;;18.27;;
34204;SDS011;20471;49.680;20.074;2022-10-31T16:13:42;35.85;;;18.12;;
34204;SDS011;20471;49.680;20.074;2022-10-31T16:16:22;30.90;;;15.72;;
34204;SDS011;20471;49.680;20.074;2022-10-31T16:18:50;34.65;;;16.27;;
34204;SDS011;20471;49.680;20.074;2022-10-31T16:21:23;32.80;;;16.00;;
34204;SDS011;20471;49.680;20.074;2022-10-31T16:23:55;40.03;;;17.57;;
34204;SDS011;20471;49.680;20.074;2022-10-31T16:26:25;32.00;;;17.25;;
34204;SDS011;20471;49.680;20.074;2022-10-31T16:28:56;33.15;;;16.82;;
34204;SDS011;20471;49.680;20.074;2022-10-31T16:31:25;32.65;;;16.50;;
34204;SDS011;20471;49.680;20.074;2022-10-31T16:36:41;34.50;;;17.70;;
34204;SDS011;20471;49.680;20.074;2022-10-31T16:39:09;37.23;;;18.30;;
34204;SDS011;20471;49.680;20.074;2022-10-31T16:41:39;37.03;;;17.07;;
34204;SDS011;20471;49.680;20.074;2022-10-31T16:44:18;31.57;;;17.10;;
34204;SDS011;20471;49.680;20.074;2022-10-31T16:49:46;33.05;;;15.48;;
34204;SDS011;20471;49.680;20.074;2022-10-31T16:52:15;30.70;;;17.02;;
34204;SDS011;20471;49.680;20.074;2022-10-31T16:54:45;24.10;;;14.90;;
34204;SDS011;20471;49.680;20.074;2022-10-31T16:57:13;28.95;;;15.58;;
34204;SDS011;20471;49.680;20.074;2022-10-31T16:59:43;33.42;;;17.90;;
34204;SDS011;20471;49.680;20.074;2022-10-31T17:02:14;27.07;;;16.75;;
34204;SDS011;20471;49.680;20.074;2022-10-31T17:04:41;37.30;;;19.70;;
34204;SDS011;20471;49.680;20.074;2022-10-31T17:07:08;46.33;;;23.57;;
34204;SDS011;20471;49.680;20.074;2022-10-31T17:09:35;44.10;;;22.55;;
34204;SDS011;20471;49.680;20.074;2022-10-31T17:12:02;44.03;;;22.58;;
34204;SDS011;20471;49.680;20.074;2022-10-31T17:14:32;48.02;;;26.35;;
34204;SDS011;20471;49.680;20.074;2022-10-31T17:17:00;50.98;;;26.77;;
34204;SDS011;20471;49.680;20.074;2022-10-31T17:19:27;53.15;;;27.27;;
34204;SDS011;20471;49.680;20.074;2022-10-31T17:21:53;45.52;;;25.57;;
34204;SDS011;20471;49.680;20.074;2022-10-31T17:24:20;49.77;;;26.27;;
34204;SDS011;20471;49.680;20.074;2022-10-31T17:26:47;46.92;;;27.60;;
34204;SDS011;20471;49.680;20.074;2022-10-31T17:29:14;48.87;;;27.20;;
34204;SDS011;20471;49.680;20.074;2022-10-31T17:31:41;56.15;;;28.67;;
34204;SDS011;20471;49.680;20.074;2022-10-31T17:34:08;55.48;;;29.32;;
34204;SDS011;20471;49.680;20.074;2022-10-31T17:36:36;50.45;;;28.55;;
34204;SDS011;20471;49.680;20.074;2022-10-31T17:39:03;52.08;;;30.85;;
34204;SDS011;20471;49.680;20.074;2022-10-31T17:41:32;59.98;;;30.30;;
34204;SDS011;20471;49.680;20.074;2022-10-31T17:43:58;50.23;;;28.62;;
34204;SDS011;20471;49.680;20.074;2022-10-31T17:46:26;55.70;;;29.50;;
34204;SDS011;20471;49.680;20.074;2022-10-31T17:48:53;49.20;;;28.10;;
34204;SDS011;20471;49.680;20.074;2022-10-31T17:51:20;53.52;;;28.23;;
34204;SDS011;20471;49.680;20.074;2022-10-31T17:53:47;48.20;;;27.48;;
34204;SDS011;20471;49.680;20.074;2022-10-31T17:56:14;45.78;;;26.05;;
34204;SDS011;20471;49.680;20.074;2022-10-31T18:01:10;45.92;;;27.45;;
34204;SDS011;20471;49.680;20.074;2022-10-31T18:03:41;44.03;;;27.85;;